logo
Search for airport 
image banner adimage banner adimage banner ad
image banner ad

TFFM - Marie Galante

Located in Grand Bourg (Antilles), Guadeloupe

ICAO - TFFM, IATA - GBJ

Data provided by Airmate  

General information

Coordinates: N15°52'7" W61°16'20"
Elevation is 19 feet MSL.
Magnetic variation is -15.01° East
View others Airports in (unassigned)

Operational data

Special qualification required
Current time UTC:
Current local time:
TAF: TAF TDPD 082300Z 0900/0924 07012KT 9999 SCT018 BECMG 0904/0906 BKN014 SCT036 TEMPO 0907/0912 SHRA
View NOTAMs / SUP AIP / TFR affecting this airport [VIEW]
Communications frequencies: [VIEW]

Runways:

RWY identifierQFULength (ft)Width (ft)SurfaceLDA (ft)
0978°406898ASPH4068
27258°406898ASPH3681

Airport contact information

Address: Grand Bourg (Antilles) Guadeloupe

Other aviation service providers

Aviation club (not for profit)

Aéroclub les Ailes Galantes

Aéroclub les Ailes Galantes
+330690346573

Satellite view of TFFM